Aviation Digital Data Service (ADDS)

Output produced by METARs form (1755 UTC 20 January 2019)
found at http://www.aviationweather.gov/metar/data/
 
FWCL 201400Z 22004KT 9999 BKN025 BKN080 24/20 Q1014 NOSIG
TAF FWCL 201430Z 2018/2124 23006KT 9999 SCT020 BKN080 
     PROB30 
     TEMPO 2018/2022 32005KT 8000 -RA SCT015 BKN070 
     FM210600 25007KT 9999 SCT015 BKN080 
     PROB40 
     TEMPO 2109/2115 33008KT 8000 -RA BKN015 BKN070